createdAt,value
2023-06-30T00:01:35.741Z,21.46
2023-06-30T00:04:06.101Z,21.50
2023-06-30T00:06:34.601Z,21.57
2023-06-30T00:09:07.288Z,21.59
2023-06-30T00:11:35.416Z,21.59
2023-06-30T00:14:03.688Z,21.60
2023-06-30T00:16:32.987Z,21.61
2023-06-30T00:19:01.861Z,21.68
2023-06-30T00:21:30.277Z,21.77
2023-06-30T00:24:05.411Z,21.85
2023-06-30T00:26:34.992Z,21.88
2023-06-30T00:29:03.285Z,21.88
2023-06-30T00:31:32.050Z,21.91
2023-06-30T00:34:01.010Z,21.94
2023-06-30T00:36:30.317Z,21.98
2023-06-30T00:39:01.436Z,22.00
2023-06-30T00:41:30.102Z,22.00
2023-06-30T00:44:00.438Z,21.92
2023-06-30T00:46:28.495Z,21.75
2023-06-30T00:48:57.324Z,21.58
2023-06-30T00:51:25.604Z,21.40
2023-06-30T00:53:53.629Z,21.33
2023-06-30T00:56:21.679Z,21.36
2023-06-30T00:58:49.681Z,21.41
2023-06-30T01:01:24.190Z,21.46
2023-06-30T01:03:53.928Z,21.51
2023-06-30T01:06:27.303Z,21.53
2023-06-30T01:08:57.309Z,21.53
2023-06-30T01:11:25.580Z,21.52
2023-06-30T01:13:53.937Z,21.51
2023-06-30T01:16:23.560Z,21.51
2023-06-30T01:18:54.188Z,21.52
2023-06-30T01:21:24.116Z,21.54
2023-06-30T01:23:54.466Z,21.54
2023-06-30T01:26:22.849Z,21.52
2023-06-30T01:28:52.223Z,21.51
2023-06-30T01:31:21.422Z,21.42
2023-06-30T01:33:51.301Z,21.43
2023-06-30T01:36:19.421Z,21.45
2023-06-30T01:38:47.769Z,21.39
2023-06-30T01:41:18.742Z,21.26
2023-06-30T01:43:46.971Z,21.19
2023-06-30T01:46:15.253Z,21.22
2023-06-30T01:48:44.378Z,21.29
2023-06-30T01:51:16.963Z,21.35
2023-06-30T01:53:45.416Z,21.37
2023-06-30T01:56:14.262Z,21.40
2023-06-30T01:58:42.299Z,21.38
2023-06-30T02:01:10.478Z,21.36
2023-06-30T02:03:38.918Z,21.31
2023-06-30T02:06:07.082Z,21.26
2023-06-30T02:08:39.086Z,21.30
2023-06-30T02:11:07.392Z,21.36
2023-06-30T02:13:35.662Z,21.40
2023-06-30T02:16:03.922Z,21.44
2023-06-30T02:18:32.022Z,21.48
2023-06-30T02:21:02.100Z,21.49
2023-06-30T02:23:31.355Z,21.51
2023-06-30T02:26:01.378Z,21.46
2023-06-30T02:28:29.405Z,21.44
2023-06-30T02:30:57.464Z,21.45
2023-06-30T02:33:25.621Z,21.45
2023-06-30T02:35:54.337Z,21.46
2023-06-30T02:38:22.405Z,21.47
2023-06-30T02:40:50.456Z,21.43
2023-06-30T02:43:20.005Z,21.43
2023-06-30T02:45:48.582Z,21.43
2023-06-30T02:48:17.110Z,21.42
2023-06-30T02:50:45.936Z,21.40
2023-06-30T02:53:16.363Z,21.38
2023-06-30T02:55:44.631Z,21.37
2023-06-30T02:58:16.368Z,21.37
2023-06-30T03:00:45.830Z,21.36
2023-06-30T03:03:13.936Z,21.33
2023-06-30T03:05:43.790Z,21.34
2023-06-30T03:08:13.422Z,21.34
2023-06-30T03:10:43.989Z,21.33
2023-06-30T03:13:12.001Z,21.33
2023-06-30T03:15:42.342Z,21.35
2023-06-30T03:18:11.810Z,21.34
2023-06-30T03:20:43.118Z,21.35
2023-06-30T03:23:11.543Z,21.32
2023-06-30T03:25:41.019Z,21.37
2023-06-30T03:28:11.367Z,21.41
2023-06-30T03:30:39.918Z,21.32
2023-06-30T03:33:09.324Z,21.16
2023-06-30T03:35:38.783Z,21.12
2023-06-30T03:38:06.980Z,21.15
2023-06-30T03:40:35.083Z,21.15
2023-06-30T03:43:04.082Z,21.09
2023-06-30T03:45:33.170Z,20.95
2023-06-30T03:48:01.619Z,20.86
2023-06-30T03:50:31.846Z,20.82
2023-06-30T03:53:02.100Z,20.81
2023-06-30T03:55:30.499Z,20.88
2023-06-30T03:57:58.907Z,20.88
2023-06-30T04:00:26.897Z,20.89
2023-06-30T04:02:55.221Z,20.90
2023-06-30T04:05:24.325Z,20.93
2023-06-30T04:07:52.365Z,20.97
2023-06-30T04:10:21.772Z,20.98
2023-06-30T04:12:49.780Z,20.97
2023-06-30T04:15:17.825Z,20.99
2023-06-30T04:17:46.115Z,21.01
2023-06-30T04:20:19.409Z,20.98
2023-06-30T04:22:48.405Z,20.93
2023-06-30T04:25:16.464Z,20.85
2023-06-30T04:27:45.971Z,20.78
2023-06-30T04:30:15.567Z,20.77
2023-06-30T04:32:44.026Z,20.74
2023-06-30T04:35:15.037Z,20.63
2023-06-30T04:37:43.459Z,20.58
2023-06-30T04:40:12.376Z,20.44
2023-06-30T04:42:40.565Z,20.36
2023-06-30T04:45:11.495Z,20.31
2023-06-30T04:47:39.982Z,20.22
2023-06-30T04:50:09.717Z,20.09
2023-06-30T04:52:37.784Z,19.97
2023-06-30T04:55:06.656Z,19.91
2023-06-30T04:57:37.645Z,19.85
2023-06-30T05:00:07.910Z,19.84
2023-06-30T05:02:37.728Z,19.86
2023-06-30T05:05:07.163Z,19.91
2023-06-30T05:07:35.340Z,19.98
2023-06-30T05:10:04.296Z,20.01
2023-06-30T05:12:33.799Z,20.03
2023-06-30T05:15:02.158Z,19.98
2023-06-30T05:17:31.097Z,19.92
2023-06-30T05:20:06.309Z,19.82
2023-06-30T05:22:35.882Z,19.77
2023-06-30T05:25:04.114Z,19.80
2023-06-30T05:27:32.520Z,19.80
2023-06-30T05:30:01.968Z,19.75
2023-06-30T05:32:30.472Z,19.64
2023-06-30T05:34:58.488Z,19.54
2023-06-30T05:37:28.931Z,19.47
2023-06-30T05:39:58.230Z,19.47
2023-06-30T05:42:26.363Z,19.48
2023-06-30T05:44:54.377Z,19.48
2023-06-30T05:47:22.871Z,19.46
2023-06-30T05:49:50.858Z,19.45
2023-06-30T05:52:22.822Z,19.48
2023-06-30T05:54:52.329Z,19.51
2023-06-30T05:57:20.593Z,19.58
2023-06-30T05:59:48.994Z,19.64
2023-06-30T06:02:17.098Z,19.69
2023-06-30T06:04:45.708Z,19.72
2023-06-30T06:07:14.930Z,19.68
2023-06-30T06:09:43.465Z,19.61
2023-06-30T06:12:13.033Z,19.49
2023-06-30T06:14:42.385Z,19.44
2023-06-30T06:17:10.566Z,19.40
2023-06-30T06:19:38.611Z,19.38
2023-06-30T06:22:08.416Z,19.37
2023-06-30T06:24:39.184Z,19.38
2023-06-30T06:27:07.824Z,19.39
2023-06-30T06:29:37.534Z,19.41
2023-06-30T06:32:06.675Z,19.46
2023-06-30T06:34:36.032Z,19.49
2023-06-30T06:37:04.308Z,19.52
2023-06-30T06:39:33.222Z,19.54
2023-06-30T06:42:01.494Z,19.58
2023-06-30T06:44:30.900Z,19.64
2023-06-30T06:47:37.295Z,19.72
2023-06-30T06:50:07.818Z,19.77
2023-06-30T06:52:36.360Z,19.86
2023-06-30T06:55:05.316Z,19.89
2023-06-30T06:57:33.355Z,19.91
2023-06-30T07:00:03.783Z,19.98
2023-06-30T07:02:37.139Z,20.01
2023-06-30T07:05:07.589Z,20.02
2023-06-30T07:07:35.842Z,20.06
2023-06-30T07:10:06.893Z,20.10
2023-06-30T07:12:34.899Z,20.15
2023-06-30T07:15:02.918Z,20.17
2023-06-30T07:17:30.946Z,20.15
2023-06-30T07:19:58.972Z,20.16
2023-06-30T07:22:28.825Z,20.20
2023-06-30T07:24:58.054Z,20.25
2023-06-30T07:27:26.939Z,20.33
2023-06-30T07:29:55.397Z,20.40
2023-06-30T07:32:26.830Z,20.51
2023-06-30T07:34:55.717Z,20.57
2023-06-30T07:37:24.811Z,20.65
2023-06-30T07:39:57.948Z,20.72
2023-06-30T07:42:28.236Z,20.71
2023-06-30T07:44:58.048Z,20.63
2023-06-30T07:47:27.024Z,20.55
2023-06-30T07:49:55.528Z,20.52
2023-06-30T07:52:26.741Z,20.54
2023-06-30T07:54:57.110Z,20.57
2023-06-30T07:57:27.991Z,20.67
2023-06-30T07:59:58.564Z,20.71
2023-06-30T08:02:29.154Z,20.73
2023-06-30T08:04:57.754Z,20.77
2023-06-30T08:07:44.236Z,20.79
2023-06-30T08:10:19.829Z,20.85
2023-06-30T08:12:48.031Z,20.94
2023-06-30T08:15:16.297Z,21.10
2023-06-30T08:17:54.543Z,21.26
2023-06-30T08:20:28.488Z,21.33
2023-06-30T08:22:56.862Z,21.40
2023-06-30T08:25:27.559Z,21.40
2023-06-30T08:27:55.647Z,21.38
2023-06-30T08:30:25.365Z,21.46
2023-06-30T08:32:57.185Z,21.54
2023-06-30T08:35:26.241Z,21.55
2023-06-30T08:37:54.720Z,21.62
2023-06-30T08:40:23.905Z,21.68
2023-06-30T08:42:54.134Z,21.73
2023-06-30T08:45:23.138Z,21.75
2023-06-30T08:47:51.247Z,21.79
2023-06-30T08:50:22.682Z,21.83
2023-06-30T08:52:51.938Z,21.85
2023-06-30T08:55:20.001Z,21.83
2023-06-30T08:57:53.132Z,21.84
2023-06-30T09:00:24.065Z,21.92
2023-06-30T09:02:52.636Z,22.00
2023-06-30T09:05:20.854Z,22.11
2023-06-30T09:07:52.324Z,22.23
2023-06-30T09:10:20.597Z,22.33
2023-06-30T09:12:49.035Z,22.40
2023-06-30T09:15:18.235Z,22.38
2023-06-30T09:17:56.964Z,22.32
2023-06-30T09:20:31.381Z,22.31
2023-06-30T09:23:00.950Z,22.38
2023-06-30T09:25:45.193Z,22.54
2023-06-30T09:28:15.742Z,22.63
2023-06-30T09:30:48.081Z,22.82
2023-06-30T09:33:18.391Z,22.88
2023-06-30T09:35:47.965Z,22.93
2023-06-30T09:38:17.999Z,22.95
2023-06-30T09:40:51.092Z,22.93
2023-06-30T09:43:19.896Z,22.96
2023-06-30T09:45:50.400Z,22.90
2023-06-30T09:48:21.584Z,22.85
2023-06-30T09:50:55.667Z,22.69
2023-06-30T09:53:27.734Z,22.51
2023-06-30T09:55:56.379Z,22.47
2023-06-30T09:58:38.219Z,22.39
2023-06-30T10:01:07.362Z,22.36
2023-06-30T10:03:37.867Z,22.22
2023-06-30T10:06:11.958Z,22.18
2023-06-30T10:11:09.304Z,22.51
2023-06-30T10:13:37.785Z,22.63
2023-06-30T10:16:09.496Z,22.66
2023-06-30T10:18:45.716Z,22.72
2023-06-30T10:21:13.909Z,22.61
2023-06-30T10:23:44.875Z,22.74
2023-06-30T10:26:20.790Z,22.81
2023-06-30T10:28:53.048Z,22.88
2023-06-30T10:31:22.912Z,23.14
2023-06-30T10:33:55.430Z,23.16
2023-06-30T10:36:25.152Z,23.30
2023-06-30T10:38:55.506Z,23.23
2023-06-30T10:41:23.716Z,23.30
2023-06-30T10:44:09.438Z,23.35
2023-06-30T10:46:47.850Z,23.33
2023-06-30T10:49:37.453Z,23.38
2023-06-30T10:52:07.763Z,23.46
2023-06-30T10:54:40.505Z,23.61
2023-06-30T10:57:10.788Z,23.77
2023-06-30T10:59:40.488Z,23.74
2023-06-30T11:02:14.848Z,23.81
2023-06-30T11:04:45.298Z,23.64
2023-06-30T11:07:18.570Z,23.39
2023-06-30T11:09:59.956Z,23.25
2023-06-30T11:12:28.915Z,23.01
2023-06-30T11:14:59.914Z,22.88
2023-06-30T11:17:30.298Z,22.83
2023-06-30T11:20:12.582Z,22.63
2023-06-30T11:22:41.564Z,22.45
2023-06-30T11:25:12.442Z,22.27
2023-06-30T11:27:42.902Z,22.10
2023-06-30T11:30:12.549Z,21.93
2023-06-30T11:32:41.821Z,21.65
2023-06-30T11:35:23.793Z,21.57
2023-06-30T11:37:53.502Z,21.40
2023-06-30T11:40:25.609Z,21.21
2023-06-30T11:42:54.471Z,21.14
2023-06-30T11:45:28.553Z,21.22
2023-06-30T11:47:58.002Z,21.30
2023-06-30T11:50:27.567Z,21.27
2023-06-30T11:55:39.173Z,21.24
2023-06-30T11:58:09.988Z,21.26
2023-06-30T12:00:38.468Z,21.30
2023-06-30T12:03:07.484Z,21.30
2023-06-30T12:05:46.532Z,21.35
2023-06-30T12:08:14.868Z,21.47
2023-06-30T12:10:43.004Z,21.64
2023-06-30T12:13:11.354Z,21.67
2023-06-30T12:15:39.427Z,21.78
2023-06-30T12:18:09.553Z,21.78
2023-06-30T12:20:44.397Z,21.78
2023-06-30T12:23:12.954Z,21.78
2023-06-30T12:25:41.268Z,21.69
2023-06-30T12:28:13.702Z,21.69
2023-06-30T12:30:42.269Z,21.77
2023-06-30T12:33:13.334Z,21.78
2023-06-30T12:35:42.946Z,21.76
2023-06-30T12:38:14.332Z,21.75
2023-06-30T12:40:42.674Z,21.82
2023-06-30T12:43:10.669Z,21.85
2023-06-30T12:45:39.036Z,21.90
2023-06-30T12:48:08.107Z,21.94
2023-06-30T12:50:36.295Z,21.97
2023-06-30T12:53:06.921Z,21.98
2023-06-30T12:55:38.633Z,22.06
2023-06-30T12:58:07.261Z,22.20
2023-06-30T13:00:37.862Z,22.25
2023-06-30T13:03:06.413Z,22.29
2023-06-30T13:05:34.834Z,22.33
2023-06-30T13:08:06.480Z,22.27
2023-06-30T13:10:35.047Z,22.22
2023-06-30T13:13:03.323Z,22.23
2023-06-30T13:15:33.626Z,22.19
2023-06-30T13:18:02.074Z,22.13
2023-06-30T13:20:31.483Z,22.11
2023-06-30T13:23:12.303Z,22.12
2023-06-30T13:25:56.038Z,22.19
2023-06-30T13:28:28.912Z,22.30
2023-06-30T13:30:58.289Z,22.52
2023-06-30T13:33:27.938Z,22.72
2023-06-30T13:35:56.825Z,22.66
2023-06-30T13:38:24.859Z,22.64
2023-06-30T13:40:54.417Z,22.72
2023-06-30T13:43:23.653Z,22.52
2023-06-30T13:45:52.378Z,22.32
2023-06-30T13:48:20.428Z,22.30
2023-06-30T13:50:48.587Z,22.27
2023-06-30T13:53:17.065Z,22.26
2023-06-30T13:55:46.832Z,22.20
2023-06-30T13:58:16.330Z,22.14
2023-06-30T14:00:47.894Z,22.18
2023-06-30T14:03:18.160Z,22.17
2023-06-30T14:05:50.661Z,22.34
2023-06-30T14:08:19.261Z,22.40
2023-06-30T14:10:49.870Z,22.45
2023-06-30T14:13:19.416Z,22.51
2023-06-30T14:15:48.094Z,22.56
2023-06-30T14:18:19.366Z,22.64
2023-06-30T14:20:51.295Z,22.53
2023-06-30T14:23:21.334Z,22.43
2023-06-30T14:25:51.613Z,22.41
2023-06-30T14:28:21.092Z,22.36
2023-06-30T14:30:49.362Z,22.48
2023-06-30T14:33:17.749Z,22.49
2023-06-30T14:35:46.441Z,22.53
2023-06-30T14:38:15.840Z,22.56
2023-06-30T14:40:44.602Z,22.48
2023-06-30T14:43:14.638Z,22.51
2023-06-30T14:45:49.244Z,22.55
2023-06-30T14:48:18.615Z,22.59
2023-06-30T14:50:49.632Z,22.59
2023-06-30T14:53:17.881Z,22.53
2023-06-30T14:55:51.623Z,22.50
2023-06-30T14:58:20.252Z,22.46
2023-06-30T15:00:53.618Z,22.46
2023-06-30T15:03:21.836Z,22.52
2023-06-30T15:05:50.384Z,22.53
2023-06-30T15:08:20.407Z,22.55
2023-06-30T15:10:49.087Z,22.52
2023-06-30T15:13:18.004Z,22.58
2023-06-30T15:15:54.667Z,22.58
2023-06-30T15:18:26.928Z,22.49
2023-06-30T15:20:55.811Z,22.32
2023-06-30T15:23:24.288Z,22.18
2023-06-30T15:25:53.841Z,22.16
2023-06-30T15:28:24.788Z,22.16
2023-06-30T15:30:55.812Z,22.03
2023-06-30T15:33:25.422Z,22.06
2023-06-30T15:35:53.892Z,22.10
2023-06-30T15:38:22.288Z,21.93
2023-06-30T15:40:59.703Z,22.01
2023-06-30T15:43:33.200Z,22.03
2023-06-30T15:46:04.035Z,22.05
2023-06-30T15:48:34.709Z,22.01
2023-06-30T15:51:04.571Z,22.09
2023-06-30T15:53:33.173Z,22.02
2023-06-30T15:56:05.282Z,21.96
2023-06-30T15:58:39.594Z,21.91
2023-06-30T16:01:08.839Z,21.84
2023-06-30T16:03:39.234Z,21.86
2023-06-30T16:06:07.551Z,21.83
2023-06-30T16:08:37.599Z,21.76
2023-06-30T16:11:05.870Z,21.74
2023-06-30T16:13:33.901Z,21.80
2023-06-30T16:16:01.960Z,21.81
2023-06-30T16:18:29.999Z,21.74
2023-06-30T16:20:59.439Z,21.69
2023-06-30T16:23:27.404Z,21.73
2023-06-30T16:25:55.395Z,21.72
2023-06-30T16:28:23.346Z,21.76
2023-06-30T16:30:51.468Z,21.72
2023-06-30T16:33:19.708Z,21.75
2023-06-30T16:35:48.141Z,21.78
2023-06-30T16:38:17.938Z,21.80
2023-06-30T16:40:45.980Z,21.79
2023-06-30T16:43:13.954Z,21.79
2023-06-30T16:45:41.994Z,21.78
2023-06-30T16:48:10.058Z,21.74
2023-06-30T16:50:38.074Z,21.74
2023-06-30T16:53:06.057Z,21.73
2023-06-30T16:55:35.453Z,21.75
2023-06-30T16:58:03.417Z,21.79
2023-06-30T17:00:31.459Z,21.78
2023-06-30T17:02:59.603Z,21.78
2023-06-30T17:05:27.751Z,21.69
2023-06-30T17:07:55.873Z,21.72
2023-06-30T17:10:23.837Z,21.74
2023-06-30T17:12:53.232Z,21.76
2023-06-30T17:15:21.300Z,21.64
2023-06-30T17:17:49.275Z,21.68
2023-06-30T17:20:17.408Z,21.63
2023-06-30T17:22:45.381Z,21.59
2023-06-30T17:25:13.381Z,21.72
2023-06-30T17:27:41.358Z,21.76
2023-06-30T17:30:12.378Z,21.78
2023-06-30T17:32:40.434Z,21.68
2023-06-30T17:35:09.241Z,21.75
2023-06-30T17:37:37.262Z,21.76
2023-06-30T17:40:06.131Z,21.68
2023-06-30T17:42:34.145Z,21.74
2023-06-30T17:45:02.126Z,21.71
2023-06-30T17:47:31.546Z,21.67
2023-06-30T17:50:01.528Z,21.65
2023-06-30T17:52:29.628Z,21.63
2023-06-30T17:54:57.609Z,21.68
2023-06-30T17:57:25.669Z,21.67
2023-06-30T17:59:53.759Z,21.66
2023-06-30T18:02:21.812Z,21.59
2023-06-30T18:04:51.651Z,21.48
2023-06-30T18:07:19.762Z,21.49
2023-06-30T18:09:47.957Z,21.46
2023-06-30T18:12:16.156Z,21.50
2023-06-30T18:14:44.202Z,21.48
2023-06-30T18:17:12.218Z,21.39
2023-06-30T18:19:41.103Z,21.48
2023-06-30T18:22:10.502Z,21.42
2023-06-30T18:24:38.588Z,21.45
2023-06-30T18:27:06.998Z,21.51
2023-06-30T18:29:35.035Z,21.45
2023-06-30T18:32:03.147Z,21.46
2023-06-30T18:34:31.161Z,21.49
2023-06-30T18:36:59.191Z,21.56
2023-06-30T18:39:28.521Z,21.51
2023-06-30T18:41:56.906Z,21.48
2023-06-30T18:44:26.094Z,21.47
2023-06-30T18:46:54.331Z,21.38
2023-06-30T18:49:24.860Z,21.35
2023-06-30T18:51:55.342Z,21.34
2023-06-30T18:54:23.680Z,21.34
2023-06-30T18:56:53.162Z,21.33
2023-06-30T18:59:21.369Z,21.38
2023-06-30T19:01:49.542Z,21.34
2023-06-30T19:04:17.997Z,21.36
2023-06-30T19:06:46.189Z,21.33
2023-06-30T19:09:14.518Z,21.31
2023-06-30T19:11:42.502Z,21.28
2023-06-30T19:14:11.951Z,21.31
2023-06-30T19:16:40.009Z,21.24
2023-06-30T19:19:08.031Z,21.22
2023-06-30T19:21:36.064Z,21.29
2023-06-30T19:24:04.122Z,21.26
2023-06-30T19:26:32.264Z,21.27
2023-06-30T19:29:00.306Z,21.31
2023-06-30T19:31:32.186Z,21.33
2023-06-30T19:34:00.215Z,21.40
2023-06-30T19:36:32.717Z,21.41
2023-06-30T19:39:01.169Z,21.35
2023-06-30T19:41:31.517Z,21.28
2023-06-30T19:43:59.581Z,21.35
2023-06-30T19:46:30.600Z,21.36
2023-06-30T19:48:58.811Z,21.30
2023-06-30T19:51:27.282Z,21.35
2023-06-30T19:53:55.304Z,21.37
2023-06-30T19:56:23.315Z,21.42
2023-06-30T19:58:51.326Z,21.36
2023-06-30T20:01:21.139Z,21.35
2023-06-30T20:03:50.628Z,21.43
2023-06-30T20:06:18.630Z,21.40
2023-06-30T20:08:46.819Z,21.38
2023-06-30T20:11:14.818Z,21.32
2023-06-30T20:13:42.780Z,21.34
2023-06-30T20:16:11.051Z,21.25
2023-06-30T20:18:39.048Z,21.32
2023-06-30T20:21:08.434Z,21.40
2023-06-30T20:23:36.482Z,21.43
2023-06-30T20:26:04.518Z,21.49
2023-06-30T20:28:32.549Z,21.55
2023-06-30T20:31:00.783Z,21.51
2023-06-30T20:33:29.119Z,21.51
2023-06-30T20:35:57.422Z,21.60
2023-06-30T20:38:26.875Z,21.60
2023-06-30T20:40:54.845Z,21.50
2023-06-30T20:43:22.845Z,21.57
2023-06-30T20:45:50.846Z,21.47
2023-06-30T20:48:18.898Z,21.51
2023-06-30T20:50:47.490Z,21.47
2023-06-30T20:53:15.649Z,21.51
2023-06-30T20:55:45.004Z,21.44
2023-06-30T20:58:13.062Z,21.48
2023-06-30T21:00:41.061Z,21.43
2023-06-30T21:03:10.229Z,21.53
2023-06-30T21:05:38.588Z,21.53
2023-06-30T21:08:06.649Z,21.40
2023-06-30T21:10:34.787Z,21.34
2023-06-30T21:13:04.207Z,21.26
2023-06-30T21:15:32.235Z,21.33
2023-06-30T21:18:00.334Z,21.32
2023-06-30T21:20:28.469Z,21.27
2023-06-30T21:22:56.523Z,21.34
2023-06-30T21:25:24.621Z,21.41
2023-06-30T21:27:52.669Z,21.39
2023-06-30T21:30:22.091Z,21.46
2023-06-30T21:32:50.091Z,21.51
2023-06-30T21:35:18.194Z,21.60
2023-06-30T21:37:46.293Z,21.59
2023-06-30T21:40:15.627Z,21.53
2023-06-30T21:42:45.512Z,21.58
2023-06-30T21:45:13.555Z,21.59
2023-06-30T21:47:42.980Z,21.56
2023-06-30T21:50:11.943Z,21.54
2023-06-30T21:52:39.950Z,21.63
2023-06-30T21:55:08.623Z,21.64
2023-06-30T21:57:36.689Z,21.63
2023-06-30T22:00:06.209Z,21.58
2023-06-30T22:02:34.602Z,21.57
2023-06-30T22:05:04.278Z,21.60
2023-06-30T22:07:32.288Z,21.61
2023-06-30T22:10:00.790Z,21.67
2023-06-30T22:12:28.797Z,21.50
2023-06-30T22:14:56.836Z,21.59
2023-06-30T22:17:24.842Z,21.58
2023-06-30T22:19:52.951Z,21.53
2023-06-30T22:22:22.290Z,21.63
2023-06-30T22:24:50.303Z,21.61
2023-06-30T22:27:18.289Z,21.66
2023-06-30T22:29:46.437Z,21.71
2023-06-30T22:32:14.709Z,21.65
2023-06-30T22:34:42.790Z,21.47
2023-06-30T22:37:10.908Z,21.61
2023-06-30T22:39:40.313Z,21.58
2023-06-30T22:42:08.629Z,21.60
2023-06-30T22:44:36.834Z,21.52
2023-06-30T22:47:05.295Z,21.52
2023-06-30T22:49:33.359Z,21.55
2023-06-30T22:52:01.396Z,21.49
2023-06-30T22:54:29.479Z,21.53
2023-06-30T22:56:58.866Z,21.68
2023-06-30T22:59:26.940Z,21.67
2023-06-30T23:01:55.047Z,21.60
2023-06-30T23:04:23.259Z,21.53
2023-06-30T23:06:51.306Z,21.67
2023-06-30T23:09:19.290Z,21.60
2023-06-30T23:11:47.284Z,21.55
2023-06-30T23:14:17.881Z,21.46
2023-06-30T23:16:47.376Z,21.53
2023-06-30T23:19:16.353Z,21.45
2023-06-30T23:21:45.330Z,21.51
2023-06-30T23:24:13.522Z,21.45
2023-06-30T23:26:42.094Z,21.56
2023-06-30T23:29:10.646Z,21.51
2023-06-30T23:31:40.275Z,21.55
2023-06-30T23:34:08.609Z,21.45
2023-06-30T23:36:37.304Z,21.39
2023-06-30T23:39:05.794Z,21.36
2023-06-30T23:41:33.952Z,21.41
2023-06-30T23:44:02.526Z,21.32
2023-06-30T23:46:31.610Z,21.20
2023-06-30T23:49:01.189Z,21.18
2023-06-30T23:51:29.219Z,21.15
2023-06-30T23:53:57.343Z,20.94
2023-06-30T23:56:25.324Z,20.97
2023-06-30T23:58:53.338Z,20.82
